Time;durP1;ratioP1;P1;durP2;ratioP2;P2;SDS_P1;SDS_P2;PMS_P1;PMS_P2;Temp;Humidity;BMP_temperature;BMP_pressure;BME280_temperature;BME280_humidity;BME280_pressure;Samples;Min_cycle;Max_cycle;Signal;HPM_P1;HPM_P2
2021/05/06 00:01:52;;;;;;;4.30;2.30;;;;;;;;;;5087050;28;20240;-62
2021/05/06 00:34:12;;;;;;;2.20;2.00;;;;;;;;;;5079261;28;20221;-61
2021/05/06 00:36:38;;;;;;;2.83;2.40;;;;;;;;;;5070611;28;20172;-62
2021/05/06 00:39:10;;;;;;;2.40;2.20;;;;;;;;;;5082061;28;20254;-63
2021/05/06 00:41:46;;;;;;;4.20;2.67;;;;;;;;;;5051684;28;20180;-61
2021/05/06 00:44:40;;;;;;;1.73;1.63;;;;;;;;;;5071499;28;20249;-62
2021/05/06 00:55:14;;;;;;;2.83;2.23;;;;;;;;;;5081530;28;20187;-62
2021/05/06 01:13:03;;;;;;;3.37;2.37;;;;;;;;;;5089431;28;20269;-62
2021/05/06 01:15:29;;;;;;;2.67;2.47;;;;;;;;;;5083823;28;20188;-62
2021/05/06 01:17:55;;;;;;;2.63;2.43;;;;;;;;;;5085756;28;21991;-63
2021/05/06 01:20:22;;;;;;;2.90;2.50;;;;;;;;;;5060589;28;20219;-62
2021/05/06 01:22:48;;;;;;;2.43;2.10;;;;;;;;;;5071974;28;20250;-63
2021/05/06 01:25:15;;;;;;;2.93;2.73;;;;;;;;;;5079677;28;20176;-63
2021/05/06 01:27:55;;;;;;;6.00;2.57;;;;;;;;;;5075767;28;20267;-61
2021/05/06 01:33:01;;;;;;;2.80;2.40;;;;;;;;;;5070264;28;20571;-62
2021/05/06 01:35:35;;;;;;;5.43;3.07;;;;;;;;;;5071541;28;20169;-61
2021/05/06 01:43:37;;;;;;;3.37;3.07;;;;;;;;;;5086816;28;20314;-62
2021/05/06 01:46:26;;;;;;;3.97;3.47;;;;;;;;;;5071165;28;20699;-62
2021/05/06 01:57:32;;;;;;;4.10;3.70;;;;;;;;;;5075484;28;20192;-62
2021/05/06 02:00:09;;;;;;;5.00;3.80;;;;;;;;;;5101263;28;20252;-62
2021/05/06 02:02:35;;;;;;;4.33;3.53;;;;;;;;;;5082500;28;20184;-61
2021/05/06 02:05:02;;;;;;;5.90;4.03;;;;;;;;;;5082212;28;20180;-61
2021/05/06 02:07:28;;;;;;;3.70;3.33;;;;;;;;;;5075235;28;20260;-61
2021/05/06 02:09:54;;;;;;;4.33;3.93;;;;;;;;;;5078752;28;20238;-61
2021/05/06 02:12:20;;;;;;;4.33;3.93;;;;;;;;;;5079379;28;20192;-62
2021/05/06 02:14:54;;;;;;;4.40;4.00;;;;;;;;;;5093572;28;20176;-63
2021/05/06 02:17:20;;;;;;;4.13;3.73;;;;;;;;;;5084792;28;20698;-62
2021/05/06 02:19:48;;;;;;;4.47;3.93;;;;;;;;;;5065231;28;20271;-62
2021/05/06 02:22:16;;;;;;;4.80;3.63;;;;;;;;;;5073041;28;20267;-62
2021/05/06 02:24:42;;;;;;;4.07;3.67;;;;;;;;;;5064762;28;21069;-62
2021/05/06 02:27:08;;;;;;;5.13;4.63;;;;;;;;;;5072610;28;20176;-62
2021/05/06 02:29:34;;;;;;;4.30;3.90;;;;;;;;;;5071220;28;20184;-62
2021/05/06 02:32:00;;;;;;;4.30;3.87;;;;;;;;;;5083135;28;20255;-61
2021/05/06 02:34:26;;;;;;;5.47;4.40;;;;;;;;;;5086402;28;20603;-61
2021/05/06 02:36:52;;;;;;;4.80;3.93;;;;;;;;;;5077414;28;20251;-62
2021/05/06 02:39:18;;;;;;;4.53;3.70;;;;;;;;;;5085545;28;20218;-62
2021/05/06 02:41:44;;;;;;;5.60;4.13;;;;;;;;;;5071562;28;20175;-63
2021/05/06 02:44:10;;;;;;;4.27;3.87;;;;;;;;;;5074580;28;20195;-61
2021/05/06 02:46:36;;;;;;;4.07;3.50;;;;;;;;;;5074021;28;20179;-61
2021/05/06 02:49:02;;;;;;;4.50;3.83;;;;;;;;;;5087626;28;20243;-61
2021/05/06 02:51:51;;;;;;;3.27;2.97;;;;;;;;;;5073818;28;20599;-61
2021/05/06 02:54:17;;;;;;;3.30;2.90;;;;;;;;;;5085049;28;20233;-62
2021/05/06 02:56:53;;;;;;;4.00;3.17;;;;;;;;;;5084899;28;20177;-61
2021/05/06 03:04:30;;;;;;;3.27;2.67;;;;;;;;;;5081538;28;20652;-62
2021/05/06 03:07:00;;;;;;;5.00;3.10;;;;;;;;;;5072829;28;20270;-61
2021/05/06 03:25:10;;;;;;;3.27;2.77;;;;;;;;;;5076232;28;20274;-63
2021/05/06 03:27:42;;;;;;;3.90;1.97;;;;;;;;;;5073489;28;20184;-61
2021/05/06 03:35:44;;;;;;;3.40;2.57;;;;;;;;;;5080774;28;20254;-62
2021/05/06 03:44:00;;;;;;;3.50;2.50;;;;;;;;;;5091513;28;20187;-62
2021/05/06 03:50:09;;;;;;;4.10;2.10;;;;;;;;;;5071547;28;20273;-62
2021/05/06 04:16:49;;;;;;;3.80;3.13;;;;;;;;;;5085803;28;20195;-61
2021/05/06 04:37:52;;;;;;;3.17;2.60;;;;;;;;;;4988140;28;20194;-62
2021/05/06 04:55:59;;;;;;;3.50;2.20;;;;;;;;;;5087884;28;20191;-62
2021/05/06 05:06:24;;;;;;;3.13;2.47;;;;;;;;;;5070163;28;20264;-61
2021/05/06 05:14:24;;;;;;;2.63;2.10;;;;;;;;;;5083209;28;20199;-63
2021/05/06 05:25:06;;;;;;;2.40;1.87;;;;;;;;;;5070640;28;20294;-61
2021/05/06 05:27:32;;;;;;;2.30;1.80;;;;;;;;;;5082238;28;20168;-63
2021/05/06 05:29:58;;;;;;;4.07;2.37;;;;;;;;;;5087909;28;20180;-61
2021/05/06 05:32:24;;;;;;;4.33;2.77;;;;;;;;;;5074705;28;20258;-60
2021/05/06 05:35:07;;;;;;;3.87;2.60;;;;;;;;;;5080573;28;20604;-63
2021/05/06 05:37:44;;;;;;;3.40;2.47;;;;;;;;;;5073275;28;20202;-61
2021/05/06 05:43:06;;;;;;;4.10;2.60;;;;;;;;;;5083825;28;20218;-62
2021/05/06 05:56:15;;;;;;;4.27;2.97;;;;;;;;;;5084775;28;20241;-61
2021/05/06 05:58:41;;;;;;;4.17;3.33;;;;;;;;;;5072964;28;20188;-62
2021/05/06 06:01:07;;;;;;;4.10;3.10;;;;;;;;;;5074608;28;20176;-61
2021/05/06 06:03:33;;;;;;;4.13;3.30;;;;;;;;;;5089813;28;20187;-62
2021/05/06 06:06:00;;;;;;;4.03;3.63;;;;;;;;;;5077340;28;20517;-62
2021/05/06 06:08:29;;;;;;;5.50;3.90;;;;;;;;;;5089774;28;20185;-61
2021/05/06 06:10:55;;;;;;;4.30;3.90;;;;;;;;;;5071038;28;20211;-61
2021/05/06 06:13:21;;;;;;;5.37;4.00;;;;;;;;;;5092519;28;20219;-61
2021/05/06 06:18:18;;;;;;;4.47;4.07;;;;;;;;;;5085881;28;20196;-62
2021/05/06 06:20:54;;;;;;;5.30;4.63;;;;;;;;;;5058379;28;20222;-61
2021/05/06 06:23:20;;;;;;;4.37;3.97;;;;;;;;;;5088062;28;20172;-60
2021/05/06 06:25:46;;;;;;;6.20;4.93;;;;;;;;;;5091619;28;20180;-61
2021/05/06 06:28:13;;;;;;;6.07;4.80;;;;;;;;;;5091608;28;20189;-61
2021/05/06 06:30:41;;;;;;;5.33;4.53;;;;;;;;;;5073547;28;20187;-61
2021/05/06 06:33:07;;;;;;;5.67;5.17;;;;;;;;;;5060488;28;20223;-62
2021/05/06 06:35:33;;;;;;;6.23;5.57;;;;;;;;;;5085009;28;20179;-63
2021/05/06 06:37:59;;;;;;;7.20;5.57;;;;;;;;;;5072779;28;20176;-62
2021/05/06 06:40:25;;;;;;;5.47;4.97;;;;;;;;;;5066782;28;20231;-61
2021/05/06 06:42:51;;;;;;;6.70;5.57;;;;;;;;;;5055921;28;20184;-64
2021/05/06 06:45:19;;;;;;;5.83;5.20;;;;;;;;;;5056604;28;20183;-63
2021/05/06 06:47:50;;;;;;;5.87;5.13;;;;;;;;;;5060369;28;20698;-63
2021/05/06 06:50:16;;;;;;;6.47;5.77;;;;;;;;;;5104899;28;20199;-62
2021/05/06 06:52:42;;;;;;;6.07;4.93;;;;;;;;;;5071651;28;20204;-63
2021/05/06 06:55:09;;;;;;;5.60;5.10;;;;;;;;;;5081611;28;20192;-63
2021/05/06 06:57:35;;;;;;;5.47;4.97;;;;;;;;;;5085150;28;20518;-61
2021/05/06 07:00:01;;;;;;;5.73;5.10;;;;;;;;;;5073506;28;20176;-62
2021/05/06 07:02:27;;;;;;;6.00;5.40;;;;;;;;;;5066044;28;20281;-61
2021/05/06 07:04:53;;;;;;;6.60;5.37;;;;;;;;;;5085854;28;20637;-62
2021/05/06 07:07:19;;;;;;;6.65;6.03;;;;;;;;;;5083982;28;20430;-61
2021/05/06 07:09:45;;;;;;;7.40;6.00;;;;;;;;;;5081859;28;20230;-61
2021/05/06 07:12:11;;;;;;;5.63;5.03;;;;;;;;;;5084683;28;20632;-61
2021/05/06 07:14:38;;;;;;;6.30;5.60;;;;;;;;;;5091234;28;20668;-62
2021/05/06 07:17:04;;;;;;;5.53;5.03;;;;;;;;;;5092443;28;20182;-63
2021/05/06 07:19:30;;;;;;;6.53;5.60;;;;;;;;;;5101487;28;20665;-62
2021/05/06 07:21:56;;;;;;;6.63;5.90;;;;;;;;;;5076698;28;20569;-63
2021/05/06 07:24:22;;;;;;;8.43;5.80;;;;;;;;;;5058846;28;20165;-63
2021/05/06 07:26:48;;;;;;;8.47;5.93;;;;;;;;;;5079293;28;20696;-62
2021/05/06 07:29:18;;;;;;;7.07;6.10;;;;;;;;;;5086712;28;20184;-62
2021/05/06 07:31:44;;;;;;;6.20;5.60;;;;;;;;;;5088379;28;20234;-62
2021/05/06 07:34:10;;;;;;;6.97;5.53;;;;;;;;;;5088171;28;20634;-61
2021/05/06 07:36:36;;;;;;;8.60;5.90;;;;;;;;;;5071346;28;20176;-61
2021/05/06 07:39:02;;;;;;;6.37;5.57;;;;;;;;;;5091266;28;20190;-62
2021/05/06 07:41:28;;;;;;;6.10;5.50;;;;;;;;;;5057071;28;20655;-62
2021/05/06 07:43:54;;;;;;;6.33;5.73;;;;;;;;;;5080030;28;20190;-62
2021/05/06 07:46:21;;;;;;;5.97;5.47;;;;;;;;;;5057163;28;20188;-62
2021/05/06 07:48:47;;;;;;;9.83;6.50;;;;;;;;;;5078818;28;20176;-62
2021/05/06 07:51:13;;;;;;;5.93;5.43;;;;;;;;;;5071322;28;20181;-62
2021/05/06 07:53:48;;;;;;;6.67;5.97;;;;;;;;;;5081071;28;20196;-62
2021/05/06 07:56:14;;;;;;;6.33;5.67;;;;;;;;;;5082523;28;20255;-62
2021/05/06 07:58:40;;;;;;;6.43;5.83;;;;;;;;;;5070109;28;20179;-62
2021/05/06 08:01:06;;;;;;;6.30;5.70;;;;;;;;;;5065883;28;20173;-61
2021/05/06 08:03:33;;;;;;;5.97;5.37;;;;;;;;;;5074980;28;20179;-63
2021/05/06 08:06:00;;;;;;;5.87;4.83;;;;;;;;;;5072434;28;20176;-63
2021/05/06 08:08:26;;;;;;;6.27;5.33;;;;;;;;;;5077993;28;20207;-61
2021/05/06 08:10:56;;;;;;;5.67;5.10;;;;;;;;;;5070848;28;20180;-61
2021/05/06 08:13:23;;;;;;;5.37;4.87;;;;;;;;;;5089876;28;20720;-61
2021/05/06 08:15:50;;;;;;;6.43;4.97;;;;;;;;;;5089581;28;20164;-62
2021/05/06 08:18:16;;;;;;;6.53;5.93;;;;;;;;;;5059936;28;20218;-64
2021/05/06 08:20:42;;;;;;;6.27;5.70;;;;;;;;;;5088042;28;20256;-61
2021/05/06 08:23:10;;;;;;;6.23;5.63;;;;;;;;;;5069054;28;20192;-62
2021/05/06 08:25:36;;;;;;;6.17;5.47;;;;;;;;;;5084612;28;20170;-61
2021/05/06 08:28:02;;;;;;;7.17;6.10;;;;;;;;;;5068554;28;20212;-61
2021/05/06 08:30:28;;;;;;;5.80;5.20;;;;;;;;;;5080036;28;20185;-61
2021/05/06 08:32:55;;;;;;;5.77;5.27;;;;;;;;;;5085866;28;20228;-61
2021/05/06 08:35:21;;;;;;;5.20;4.67;;;;;;;;;;5069649;28;20640;-61
2021/05/06 08:37:47;;;;;;;6.47;5.33;;;;;;;;;;5082119;28;20654;-61
2021/05/06 08:40:13;;;;;;;5.97;5.37;;;;;;;;;;5083360;28;20176;-63
2021/05/06 08:42:40;;;;;;;5.93;5.33;;;;;;;;;;5078604;28;20567;-62
2021/05/06 08:45:06;;;;;;;5.33;4.83;;;;;;;;;;5087867;28;20221;-61
2021/05/06 08:47:33;;;;;;;5.67;5.17;;;;;;;;;;5078525;28;20184;-61
2021/05/06 08:49:59;;;;;;;6.07;4.93;;;;;;;;;;5071391;28;20555;-62
2021/05/06 08:52:26;;;;;;;5.47;5.00;;;;;;;;;;5084876;28;20208;-62
2021/05/06 08:54:54;;;;;;;6.03;5.43;;;;;;;;;;5064551;28;20236;-62
2021/05/06 08:57:21;;;;;;;6.30;5.00;;;;;;;;;;5076615;28;20176;-61
2021/05/06 08:59:47;;;;;;;6.10;5.50;;;;;;;;;;5067837;28;20176;-61
2021/05/06 09:02:13;;;;;;;6.63;5.30;;;;;;;;;;5066705;28;20638;-62
2021/05/06 09:04:39;;;;;;;5.93;5.20;;;;;;;;;;5063637;28;20179;-62
2021/05/06 09:07:08;;;;;;;5.23;4.73;;;;;;;;;;5069161;28;20167;-62
2021/05/06 09:09:34;;;;;;;6.13;5.53;;;;;;;;;;5077104;28;20673;-62
2021/05/06 09:12:01;;;;;;;5.17;4.77;;;;;;;;;;5084243;28;20446;-61
2021/05/06 09:14:41;;;;;;;4.53;4.13;;;;;;;;;;5094793;28;20174;-62
2021/05/06 09:17:23;;;;;;;7.67;5.30;;;;;;;;;;5074955;28;20195;-62
2021/05/06 09:20:07;;;;;;;5.67;4.93;;;;;;;;;;5089704;28;20159;-62
2021/05/06 09:22:34;;;;;;;5.83;4.73;;;;;;;;;;5075059;28;20267;-61
2021/05/06 09:25:22;;;;;;;4.93;4.47;;;;;;;;;;5074842;28;20210;-61
2021/05/06 09:27:48;;;;;;;5.07;4.60;;;;;;;;;;5086554;28;20176;-62
2021/05/06 09:30:14;;;;;;;5.00;4.60;;;;;;;;;;5092798;28;20176;-63
2021/05/06 09:32:40;;;;;;;4.27;3.87;;;;;;;;;;5093098;28;20219;-61
2021/05/06 09:35:16;;;;;;;4.37;4.07;;;;;;;;;;5111387;28;20184;-62
2021/05/06 09:37:44;;;;;;;4.87;4.47;;;;;;;;;;5114138;28;20155;-62
2021/05/06 09:40:10;;;;;;;6.17;4.60;;;;;;;;;;5093030;28;20253;-61
2021/05/06 09:42:41;;;;;;;4.70;4.23;;;;;;;;;;5075064;28;20183;-62
2021/05/06 09:45:08;;;;;;;4.57;4.17;;;;;;;;;;5087945;28;20658;-62
2021/05/06 09:47:34;;;;;;;3.97;3.50;;;;;;;;;;5082209;28;20649;-61
2021/05/06 09:50:00;;;;;;;3.87;3.57;;;;;;;;;;5079601;28;20200;-62
2021/05/06 09:52:26;;;;;;;3.73;3.43;;;;;;;;;;5083318;28;20199;-61
2021/05/06 09:54:53;;;;;;;3.60;3.30;;;;;;;;;;5088166;28;20179;-63
2021/05/06 09:57:27;;;;;;;4.17;3.77;;;;;;;;;;5093086;28;20180;-62
2021/05/06 10:00:13;;;;;;;4.67;3.43;;;;;;;;;;5073515;28;20191;-61
2021/05/06 10:02:39;;;;;;;4.57;3.97;;;;;;;;;;5087071;28;20175;-62
2021/05/06 10:05:06;;;;;;;3.53;3.23;;;;;;;;;;5087085;28;20194;-62
2021/05/06 10:07:32;;;;;;;5.03;3.67;;;;;;;;;;5078007;28;20215;-61
2021/05/06 10:10:00;;;;;;;3.60;3.30;;;;;;;;;;5073275;28;20222;-61
2021/05/06 10:12:27;;;;;;;4.10;2.97;;;;;;;;;;5092533;28;20198;-61
2021/05/06 10:14:54;;;;;;;3.53;2.70;;;;;;;;;;5103987;28;20181;-62
2021/05/06 10:17:21;;;;;;;3.97;3.57;;;;;;;;;;5079566;28;20304;-62
2021/05/06 10:19:47;;;;;;;2.93;2.60;;;;;;;;;;5066309;28;20667;-62
2021/05/06 10:22:15;;;;;;;4.33;3.13;;;;;;;;;;5073731;28;20271;-61
2021/05/06 10:24:42;;;;;;;4.60;2.83;;;;;;;;;;5068497;28;20242;-62
2021/05/06 10:27:10;;;;;;;8.17;4.00;;;;;;;;;;5070668;28;20266;-61
2021/05/06 10:29:36;;;;;;;2.93;2.43;;;;;;;;;;5079293;28;20543;-60
2021/05/06 10:32:03;;;;;;;5.40;2.97;;;;;;;;;;5076675;28;20239;-61
2021/05/06 10:34:33;;;;;;;3.30;3.00;;;;;;;;;;5085781;28;20180;-62
2021/05/06 10:37:00;;;;;;;4.87;3.60;;;;;;;;;;5074920;28;20173;-62
2021/05/06 10:39:36;;;;;;;4.63;3.57;;;;;;;;;;5076623;28;20187;-62
2021/05/06 10:42:22;;;;;;;4.03;3.13;;;;;;;;;;5077123;28;20171;-62
2021/05/06 10:44:48;;;;;;;2.77;2.57;;;;;;;;;;5077379;28;20171;-63
2021/05/06 10:47:15;;;;;;;3.73;3.13;;;;;;;;;;5092397;28;20643;-65
2021/05/06 10:49:42;;;;;;;2.90;2.50;;;;;;;;;;5090411;28;20256;-63
2021/05/06 10:52:09;;;;;;;2.50;2.30;;;;;;;;;;5091429;28;20179;-62
2021/05/06 10:54:36;;;;;;;3.97;2.50;;;;;;;;;;5078945;28;20606;-62
2021/05/06 10:57:24;;;;;;;3.80;2.50;;;;;;;;;;5070683;28;20225;-63
2021/05/06 10:59:50;;;;;;;2.40;2.20;;;;;;;;;;5075884;28;20180;-63
2021/05/06 11:02:38;;;;;;;2.40;2.20;;;;;;;;;;5053480;28;20169;-62
2021/05/06 11:05:14;;;;;;;4.27;2.37;;;;;;;;;;5056340;28;20196;-63
2021/05/06 11:07:41;;;;;;;2.97;2.00;;;;;;;;;;5087312;28;20622;-63
2021/05/06 11:10:07;;;;;;;4.50;2.00;;;;;;;;;;5072648;28;20210;-63
2021/05/06 11:12:34;;;;;;;2.43;1.80;;;;;;;;;;5071538;28;20291;-63
2021/05/06 11:15:00;;;;;;;2.23;1.70;;;;;;;;;;5083138;28;20168;-63
2021/05/06 11:17:41;;;;;;;3.60;1.83;;;;;;;;;;5091512;28;20191;-63
2021/05/06 11:20:10;;;;;;;5.13;1.90;;;;;;;;;;5076949;28;20229;-61
2021/05/06 11:22:51;;;;;;;2.63;2.10;;;;;;;;;;5071182;28;20230;-62
2021/05/06 11:25:37;;;;;;;1.87;1.77;;;;;;;;;;5077056;28;20184;-61
2021/05/06 11:28:07;;;;;;;2.70;1.93;;;;;;;;;;5081689;28;20174;-61
2021/05/06 11:30:33;;;;;;;4.13;2.00;;;;;;;;;;5086816;28;20176;-60
2021/05/06 11:33:18;;;;;;;4.27;2.40;;;;;;;;;;5058877;28;20220;-59
2021/05/06 11:36:06;;;;;;;6.50;1.97;;;;;;;;;;5070638;28;20172;-58
2021/05/06 11:38:38;;;;;;;4.67;1.73;;;;;;;;;;5076542;28;20172;-60
2021/05/06 11:41:08;;;;;;;3.70;2.30;;;;;;;;;;5090056;28;20601;-62
2021/05/06 11:43:35;;;;;;;5.53;2.07;;;;;;;;;;5074333;28;20186;-60
2021/05/06 11:46:05;;;;;;;2.03;1.83;;;;;;;;;;5072629;28;20190;-61
2021/05/06 11:48:35;;;;;;;2.33;1.93;;;;;;;;;;5072390;28;20191;-61
2021/05/06 11:51:01;;;;;;;2.53;2.00;;;;;;;;;;5072026;28;20196;-60
2021/05/06 11:53:27;;;;;;;2.40;1.53;;;;;;;;;;5095096;28;20214;-61
2021/05/06 11:55:53;;;;;;;3.53;1.80;;;;;;;;;;5110169;28;20163;-60
2021/05/06 11:58:28;;;;;;;4.70;1.60;;;;;;;;;;5092309;28;20527;-61
2021/05/06 12:00:55;;;;;;;2.90;1.70;;;;;;;;;;5087776;28;20535;-61
2021/05/06 12:03:33;;;;;;;2.40;1.80;;;;;;;;;;5075455;28;20235;-61
2021/05/06 12:06:00;;;;;;;2.67;1.70;;;;;;;;;;5072504;28;20172;-61
2021/05/06 12:08:28;;;;;;;3.03;1.60;;;;;;;;;;5090433;28;20539;-60
2021/05/06 12:10:55;;;;;;;1.83;1.70;;;;;;;;;;5070664;28;20787;-61
2021/05/06 12:13:24;;;;;;;2.13;1.93;;;;;;;;;;5082901;28;20726;-61
2021/05/06 12:15:51;;;;;;;2.00;1.83;;;;;;;;;;5090935;28;20167;-60
2021/05/06 12:18:21;;;;;;;2.03;1.50;;;;;;;;;;5088358;28;20178;-62
2021/05/06 12:20:51;;;;;;;1.77;1.57;;;;;;;;;;5086869;28;20764;-61
2021/05/06 12:23:17;;;;;;;2.30;1.90;;;;;;;;;;5087665;28;20175;-61
2021/05/06 12:25:43;;;;;;;2.37;1.60;;;;;;;;;;5089098;28;20176;-61
2021/05/06 12:28:09;;;;;;;1.63;1.47;;;;;;;;;;5073706;28;20647;-63
2021/05/06 12:30:36;;;;;;;2.80;1.60;;;;;;;;;;5097459;28;20600;-61
2021/05/06 12:33:02;;;;;;;2.13;1.83;;;;;;;;;;5078726;28;20337;-61
2021/05/06 12:35:28;;;;;;;1.97;1.73;;;;;;;;;;5082611;28;20181;-61
2021/05/06 12:37:54;;;;;;;2.40;1.60;;;;;;;;;;5075080;28;20222;-61
2021/05/06 12:40:21;;;;;;;3.70;1.90;;;;;;;;;;5069097;28;20203;-59
2021/05/06 12:42:47;;;;;;;2.00;1.80;;;;;;;;;;5091427;28;20180;-62
2021/05/06 12:45:13;;;;;;;1.83;1.50;;;;;;;;;;5108978;28;20171;-62
2021/05/06 12:47:44;;;;;;;2.17;1.80;;;;;;;;;;5091987;28;20652;-61
2021/05/06 12:50:21;;;;;;;1.97;1.50;;;;;;;;;;5090457;28;20267;-63
2021/05/06 12:52:48;;;;;;;2.23;1.67;;;;;;;;;;5079432;28;20670;-62
2021/05/06 12:55:19;;;;;;;8.33;1.73;;;;;;;;;;5088318;28;20217;-61
2021/05/06 12:57:46;;;;;;;1.50;1.40;;;;;;;;;;5090041;28;20209;-62
2021/05/06 13:00:15;;;;;;;2.87;1.67;;;;;;;;;;5089226;28;20171;-60
2021/05/06 13:02:41;;;;;;;2.60;1.80;;;;;;;;;;5089497;28;20180;-60
2021/05/06 13:05:08;;;;;;;2.80;2.30;;;;;;;;;;5086980;28;20266;-62
2021/05/06 13:07:49;;;;;;;2.87;1.70;;;;;;;;;;5087364;28;20184;-62
2021/05/06 13:10:26;;;;;;;1.80;1.60;;;;;;;;;;5073376;28;20177;-62
2021/05/06 13:12:52;;;;;;;1.93;1.70;;;;;;;;;;5069223;28;20246;-62
2021/05/06 13:15:18;;;;;;;2.67;1.50;;;;;;;;;;5087239;28;20183;-64
2021/05/06 13:17:44;;;;;;;3.03;1.83;;;;;;;;;;5089062;28;20175;-62
2021/05/06 13:20:21;;;;;;;2.70;1.97;;;;;;;;;;5085560;28;20176;-61
2021/05/06 13:23:05;;;;;;;2.03;1.83;;;;;;;;;;5079906;28;20171;-61
2021/05/06 13:25:40;;;;;;;3.73;1.90;;;;;;;;;;5063792;28;20195;-62
2021/05/06 13:28:07;;;;;;;1.97;1.77;;;;;;;;;;5060163;28;20237;-63
2021/05/06 13:30:34;;;;;;;2.23;1.50;;;;;;;;;;5074997;28;20182;-61
2021/05/06 13:33:21;;;;;;;4.10;1.80;;;;;;;;;;5075913;28;20316;-61
2021/05/06 13:36:03;;;;;;;1.77;1.67;;;;;;;;;;5082696;28;20180;-61
2021/05/06 13:38:48;;;;;;;1.83;1.60;;;;;;;;;;5088703;28;20168;-62
2021/05/06 13:41:15;;;;;;;2.13;1.90;;;;;;;;;;5073313;28;20176;-62
2021/05/06 13:43:41;;;;;;;1.80;1.70;;;;;;;;;;5076983;28;20188;-61
2021/05/06 13:46:09;;;;;;;2.20;1.70;;;;;;;;;;5077999;28;20176;-64
2021/05/06 13:48:35;;;;;;;1.67;1.30;;;;;;;;;;5077034;28;20233;-60
2021/05/06 13:51:01;;;;;;;1.87;1.67;;;;;;;;;;5081342;28;20207;-63
2021/05/06 13:53:30;;;;;;;1.87;1.47;;;;;;;;;;5081231;28;20202;-61
2021/05/06 13:55:56;;;;;;;3.33;1.77;;;;;;;;;;5086248;28;20172;-61
2021/05/06 13:58:22;;;;;;;2.27;1.60;;;;;;;;;;5078947;28;20187;-62
2021/05/06 14:00:48;;;;;;;2.70;1.40;;;;;;;;;;5085386;28;20179;-61
2021/05/06 14:03:14;;;;;;;3.37;1.57;;;;;;;;;;5087926;28;20277;-61
2021/05/06 14:05:40;;;;;;;3.07;1.70;;;;;;;;;;5083591;28;20176;-62
2021/05/06 14:08:06;;;;;;;1.83;1.67;;;;;;;;;;5087788;28;20226;-62
2021/05/06 14:10:33;;;;;;;2.60;1.50;;;;;;;;;;5082395;28;20180;-62
2021/05/06 14:12:59;;;;;;;2.77;1.60;;;;;;;;;;5083002;28;20239;-62
2021/05/06 14:15:25;;;;;;;6.83;1.90;;;;;;;;;;5064034;28;20271;-62
2021/05/06 14:17:51;;;;;;;1.73;1.63;;;;;;;;;;5078908;28;20257;-63
2021/05/06 14:20:17;;;;;;;1.67;1.37;;;;;;;;;;5080991;28;20181;-61
2021/05/06 14:22:44;;;;;;;2.00;1.40;;;;;;;;;;5076652;28;20255;-61
2021/05/06 14:25:10;;;;;;;2.10;1.63;;;;;;;;;;5084526;28;20202;-61
2021/05/06 14:27:36;;;;;;;3.80;2.37;;;;;;;;;;5080936;28;20179;-61
2021/05/06 14:30:05;;;;;;;2.23;1.70;;;;;;;;;;5066900;28;20179;-62
2021/05/06 14:32:31;;;;;;;2.80;1.70;;;;;;;;;;5085274;28;20270;-61
2021/05/06 14:34:57;;;;;;;2.37;1.60;;;;;;;;;;5084715;28;20181;-64
2021/05/06 14:37:23;;;;;;;2.23;1.77;;;;;;;;;;5078372;28;20168;-62
2021/05/06 14:39:50;;;;;;;1.77;1.40;;;;;;;;;;5090010;28;20233;-65
2021/05/06 14:42:16;;;;;;;1.37;1.27;;;;;;;;;;5083218;28;20551;-63
2021/05/06 14:44:42;;;;;;;2.37;1.30;;;;;;;;;;5079256;28;20182;-64
2021/05/06 14:47:08;;;;;;;2.80;1.43;;;;;;;;;;5076874;28;20521;-64
2021/05/06 14:49:34;;;;;;;3.00;1.60;;;;;;;;;;5078203;28;20279;-63
2021/05/06 14:52:00;;;;;;;2.90;1.57;;;;;;;;;;5072618;28;20175;-63
2021/05/06 14:54:26;;;;;;;2.47;1.35;;;;;;;;;;5085631;28;20428;-63
2021/05/06 14:56:52;;;;;;;1.83;1.43;;;;;;;;;;5067593;28;20181;-62
2021/05/06 14:59:18;;;;;;;1.57;1.40;;;;;;;;;;5084319;28;20519;-63
2021/05/06 15:01:44;;;;;;;2.60;1.63;;;;;;;;;;5076155;28;20185;-63
2021/05/06 15:04:10;;;;;;;1.40;1.30;;;;;;;;;;5083217;28;20228;-63
2021/05/06 15:06:36;;;;;;;2.87;1.60;;;;;;;;;;5062156;28;20176;-62
2021/05/06 15:09:05;;;;;;;1.63;1.47;;;;;;;;;;5078375;28;20576;-62
2021/05/06 15:11:31;;;;;;;1.87;1.37;;;;;;;;;;5054114;28;20178;-63
2021/05/06 15:13:57;;;;;;;1.90;1.40;;;;;;;;;;5059291;28;20621;-63
2021/05/06 15:16:23;;;;;;;2.03;1.87;;;;;;;;;;5083584;28;20179;-63
2021/05/06 15:18:49;;;;;;;2.13;1.60;;;;;;;;;;5060576;28;20211;-65
2021/05/06 15:21:15;;;;;;;1.70;1.60;;;;;;;;;;5084533;28;20184;-65
2021/05/06 15:23:41;;;;;;;3.77;1.70;;;;;;;;;;5079467;28;20178;-62
2021/05/06 15:26:07;;;;;;;6.63;2.10;;;;;;;;;;5060135;28;20627;-61
2021/05/06 15:28:33;;;;;;;2.40;1.47;;;;;;;;;;5088823;28;20198;-62
2021/05/06 15:31:00;;;;;;;3.47;1.80;;;;;;;;;;5088168;28;20233;-61
2021/05/06 15:33:26;;;;;;;1.73;1.60;;;;;;;;;;5084915;28;20222;-62
2021/05/06 15:35:52;;;;;;;3.23;1.43;;;;;;;;;;5085589;28;20268;-62
2021/05/06 15:38:19;;;;;;;1.60;1.50;;;;;;;;;;5073137;28;20646;-63
2021/05/06 15:40:46;;;;;;;1.70;1.50;;;;;;;;;;5064808;28;20190;-62
2021/05/06 15:43:13;;;;;;;2.17;1.53;;;;;;;;;;5061594;28;20304;-62
2021/05/06 15:45:41;;;;;;;1.50;1.40;;;;;;;;;;5079834;28;20214;-63
2021/05/06 15:48:08;;;;;;;1.80;1.50;;;;;;;;;;5072788;28;20192;-62
2021/05/06 15:50:34;;;;;;;1.60;1.50;;;;;;;;;;5080876;28;20201;-63
2021/05/06 15:53:01;;;;;;;3.07;1.70;;;;;;;;;;5084857;28;20559;-61
2021/05/06 15:55:29;;;;;;;3.83;1.63;;;;;;;;;;5088103;28;20266;-62
2021/05/06 15:57:55;;;;;;;2.72;1.70;;;;;;;;;;5082037;28;20408;-62
2021/05/06 16:00:24;;;;;;;4.00;2.20;;;;;;;;;;5072578;28;20186;-63
2021/05/06 16:02:50;;;;;;;3.63;1.93;;;;;;;;;;5082211;28;20173;-62
2021/05/06 16:05:27;;;;;;;2.70;1.60;;;;;;;;;;5086140;28;20173;-62
2021/05/06 16:07:53;;;;;;;2.07;1.70;;;;;;;;;;5080487;28;20170;-62
2021/05/06 16:10:20;;;;;;;1.70;1.60;;;;;;;;;;5077609;28;20178;-63
2021/05/06 16:12:46;;;;;;;2.53;1.70;;;;;;;;;;5053785;28;20663;-63
2021/05/06 16:15:12;;;;;;;3.07;1.67;;;;;;;;;;5087160;28;20188;-62
2021/05/06 16:17:38;;;;;;;2.00;1.60;;;;;;;;;;5078069;28;20180;-62
2021/05/06 16:20:11;;;;;;;1.83;1.53;;;;;;;;;;5103068;28;20227;-62
2021/05/06 16:22:37;;;;;;;2.07;1.87;;;;;;;;;;5088541;28;20176;-63
2021/05/06 16:25:03;;;;;;;1.97;1.70;;;;;;;;;;5088341;28;20529;-62
2021/05/06 16:27:29;;;;;;;2.00;1.67;;;;;;;;;;5062557;28;20196;-65
2021/05/06 16:29:55;;;;;;;2.73;1.80;;;;;;;;;;5071420;28;20188;-63
2021/05/06 16:32:21;;;;;;;2.83;1.90;;;;;;;;;;5062246;28;20292;-61
2021/05/06 16:34:48;;;;;;;2.30;1.70;;;;;;;;;;5089286;28;20655;-61
2021/05/06 16:37:24;;;;;;;2.40;1.67;;;;;;;;;;5081800;28;20260;-64
2021/05/06 16:40:09;;;;;;;2.43;1.57;;;;;;;;;;5082165;28;20166;-62
2021/05/06 16:45:20;;;;;;;2.57;1.47;;;;;;;;;;5080421;28;20167;-64
2021/05/06 16:47:46;;;;;;;1.93;1.73;;;;;;;;;;5078129;28;20172;-62
2021/05/06 16:50:12;;;;;;;4.27;2.13;;;;;;;;;;5085048;28;20654;-63
2021/05/06 16:52:38;;;;;;;4.63;3.67;;;;;;;;;;5084019;28;20175;-62
2021/05/06 16:55:04;;;;;;;3.60;2.53;;;;;;;;;;5076652;28;20630;-62
2021/05/06 16:57:30;;;;;;;3.60;1.80;;;;;;;;;;5079004;28;20176;-62
2021/05/06 16:59:57;;;;;;;2.27;2.03;;;;;;;;;;5067178;28;20213;-61
2021/05/06 17:02:23;;;;;;;4.70;2.10;;;;;;;;;;5081764;28;20609;-61
2021/05/06 17:04:49;;;;;;;3.20;2.00;;;;;;;;;;5087269;28;20184;-63
2021/05/06 17:07:15;;;;;;;3.93;2.23;;;;;;;;;;5072586;28;20188;-62
2021/05/06 17:09:45;;;;;;;2.40;1.90;;;;;;;;;;5077209;28;20589;-62
2021/05/06 17:12:11;;;;;;;4.10;2.17;;;;;;;;;;5065569;28;20179;-62
2021/05/06 17:14:37;;;;;;;2.57;2.37;;;;;;;;;;5078771;28;20233;-63
2021/05/06 17:17:03;;;;;;;1.67;1.57;;;;;;;;;;5054829;28;20180;-62
2021/05/06 17:19:29;;;;;;;2.17;1.97;;;;;;;;;;5070189;28;20526;-61
2021/05/06 17:21:55;;;;;;;5.53;2.83;;;;;;;;;;5062984;28;20176;-61
2021/05/06 17:24:24;;;;;;;3.33;2.10;;;;;;;;;;5078602;28;20172;-63
2021/05/06 17:26:50;;;;;;;2.23;1.87;;;;;;;;;;5084296;28;20183;-62
2021/05/06 17:29:16;;;;;;;2.17;1.87;;;;;;;;;;5081750;28;20230;-61
2021/05/06 17:31:42;;;;;;;2.80;2.20;;;;;;;;;;5084803;28;20212;-61
2021/05/06 17:34:08;;;;;;;2.13;1.93;;;;;;;;;;5068287;28;20245;-62
2021/05/06 17:36:34;;;;;;;3.13;2.43;;;;;;;;;;5064951;28;20176;-61
2021/05/06 17:39:00;;;;;;;3.70;2.20;;;;;;;;;;5090721;28;20183;-62
2021/05/06 17:41:26;;;;;;;2.93;1.90;;;;;;;;;;5077002;28;20207;-63
2021/05/06 17:43:53;;;;;;;4.03;2.00;;;;;;;;;;5063279;28;20183;-61
2021/05/06 17:46:19;;;;;;;3.00;2.30;;;;;;;;;;5083683;28;20173;-62
2021/05/06 17:48:45;;;;;;;4.13;2.17;;;;;;;;;;5087301;28;20185;-61
2021/05/06 17:51:11;;;;;;;3.43;1.97;;;;;;;;;;5081985;28;20643;-61
2021/05/06 17:53:37;;;;;;;2.50;2.30;;;;;;;;;;5082164;28;20227;-61
2021/05/06 17:56:04;;;;;;;2.57;2.07;;;;;;;;;;5083577;28;20192;-62
2021/05/06 17:58:32;;;;;;;2.37;1.60;;;;;;;;;;5073629;28;20176;-61
2021/05/06 18:00:58;;;;;;;2.87;2.07;;;;;;;;;;5072183;28;20184;-62
2021/05/06 18:03:24;;;;;;;2.13;1.93;;;;;;;;;;5087513;28;20184;-60
2021/05/06 18:05:50;;;;;;;3.47;1.70;;;;;;;;;;5077995;28;20333;-60
2021/05/06 18:08:23;;;;;;;2.93;2.07;;;;;;;;;;5090236;28;20230;-60
2021/05/06 18:10:51;;;;;;;4.10;1.97;;;;;;;;;;5072417;28;20690;-62
2021/05/06 18:13:18;;;;;;;4.87;2.30;;;;;;;;;;5080166;28;20221;-60
2021/05/06 18:15:44;;;;;;;4.50;2.30;;;;;;;;;;5090787;28;20173;-61